ADDS METAR Data INFO
IDs: Format: Raw Decoded Include TAF

Data at: 0512 UTC 22 Jul 2017

KW43 220455Z AUTO 14005KT 10SM CLR 18/05 A3005 RMK AO2
KW43 220435Z AUTO 15005KT 10SM CLR 19/05 A3006 RMK AO2
KW43 220415Z AUTO 14007KT 10SM CLR 20/05 A3006 RMK AO2
KW43 220355Z AUTO 16007KT 10SM CLR 20/06 A3006 RMK AO2
KW43 220335Z AUTO 15004KT 10SM CLR 21/05 A3006 RMK AO2
KW43 220315Z AUTO 10005KT 10SM CLR 23/03 A3006 RMK AO2
KW43 220255Z AUTO 10004KT 10SM CLR 22/05 A3005 RMK AO2
KW43 220235Z AUTO 10003KT 10SM CLR 24/05 A3004 RMK AO2
KW43 220215Z AUTO 00000KT 10SM CLR 27/00 A3003 RMK AO2
KW43 220155Z AUTO 02003KT 10SM CLR 27/00 A3002 RMK AO2
KW43 220135Z AUTO 02003KT 10SM CLR 28/01 A3002 RMK AO2
KW43 220115Z AUTO 36004KT 10SM CLR 28/00 A3002 RMK AO2
KW43 220055Z AUTO 33007KT 10SM CLR 29/00 A3002 RMK AO2
KW43 220035Z AUTO 33004KT 10SM CLR 30/00 A3002 RMK AO2
KW43 220015Z AUTO 33005KT 10SM CLR 30/00 A3002 RMK AO2
KW43 212355Z AUTO 34011KT 10SM CLR 31/00 A3002 RMK AO2
KW43 212335Z AUTO 29004KT 10SM CLR 31/00 A3002 RMK AO2
KW43 212315Z AUTO 36008KT 10SM CLR 31/00 A3003 RMK AO2
KW43 212255Z AUTO 36007KT 320V040 10SM CLR 31/00 A3003 RMK AO2
KW43 212235Z AUTO 35004KT 10SM CLR 31/00 A3003 RMK AO2
KW43 212215Z AUTO 35010G17KT 10SM CLR 31/00 A3003 RMK AO2
KW43 212155Z AUTO 36012G16KT 10SM CLR 31/00 A3003 RMK AO2
KW43 212135Z AUTO 02008G14KT 10SM CLR 31/00 A3003 RMK AO2
KW43 212115Z AUTO 33010G15KT 260V350 10SM CLR 31/01 A3003 RMK AO2
KW43 212055Z AUTO 02010G15KT 10SM CLR 31/01 A3003 RMK AO2
KW43 212035Z AUTO 30004KT 10SM CLR 30/00 A3003 RMK AO2
KW43 212015Z AUTO 36010KT 10SM CLR 31/02 A3004 RMK AO2
KW43 211955Z AUTO 34010G16KT 10SM CLR 30/02 A3004 RMK AO2
KW43 211935Z AUTO 32012G17KT 10SM CLR 30/03 A3004 RMK AO2
KW43 211915Z AUTO 35010G18KT 10SM CLR 29/02 A3004 RMK AO2
KW43 211855Z AUTO 01013G16KT 10SM CLR 30/03 A3004 RMK AO2
KW43 211835Z AUTO 34011G19KT 10SM CLR 28/05 A3005 RMK AO2
KW43 211815Z AUTO 32013G17KT 10SM CLR 28/06 A3006 RMK AO2
KW43 211755Z AUTO 31010G19KT 10SM CLR 28/06 A3006 RMK AO2
KW43 211735Z AUTO 32010G14KT 290V350 10SM CLR 27/06 A3005 RMK AO2 LTG DSNT W
KW43 211715Z AUTO 30007KT 10SM CLR 26/08 A3005 RMK AO2
KW43 211655Z AUTO 29010G14KT 10SM CLR 25/07 A3004 RMK AO2
KW43 211635Z AUTO 28006KT 7SM SCT040 SCT046 25/08 A3004 RMK AO2
KW43 211615Z AUTO 29006KT 7SM SCT033 BKN039 23/08 A3004 RMK AO2
KW43 211555Z AUTO 27007KT 7SM BKN036 23/10 A3003 RMK AO2
KW43 211535Z AUTO 27005KT 7SM OVC033 23/11 A3003 RMK AO2
KW43 211515Z AUTO 25006KT 10SM OVC029 23/12 A3003 RMK AO2
KW43 211455Z AUTO 25008KT 10SM SCT027 22/13 A3003 RMK AO2
KW43 211435Z AUTO 24007KT 10SM CLR 22/13 A3002 RMK AO2
KW43 211415Z AUTO 24006KT 10SM CLR 22/13 A3001 RMK AO2
KW43 211355Z AUTO 22010KT 10SM CLR 22/14 A3000 RMK AO2
KW43 211335Z AUTO 23008KT 10SM CLR 22/14 A2999 RMK AO2
KW43 211315Z AUTO 23010KT 10SM CLR 21/14 A2998 RMK AO2 LTG DSNT NE
KW43 211255Z AUTO 22006KT 10SM CLR 21/15 A2997 RMK AO2
KW43 211235Z AUTO 23006KT 10SM CLR 19/15 A2996 RMK AO2
KW43 211215Z AUTO 00000KT 10SM CLR 18/15 A2996 RMK AO2
KW43 211155Z AUTO 29003KT 10SM CLR 19/15 A2995 RMK AO2
KW43 211135Z AUTO 00000KT 10SM CLR 18/15 A2994 RMK AO2
KW43 211115Z AUTO 21004KT 10SM CLR 19/15 A2994 RMK AO2
KW43 211055Z AUTO 26005KT 10SM CLR 20/15 A2994 RMK AO2
KW43 211035Z AUTO 22005KT 10SM CLR 20/15 A2994 RMK AO2
KW43 211015Z AUTO 22008KT 10SM CLR 19/16 A2993 RMK AO2
KW43 210955Z AUTO 23008KT 10SM CLR 20/16 A2994 RMK AO2
KW43 210935Z AUTO 22010KT 10SM CLR 20/15 A2994 RMK AO2
KW43 210915Z AUTO 23010KT 10SM CLR 20/15 A2994 RMK AO2
KW43 210855Z AUTO 25006KT 10SM CLR 18/15 A2994 RMK AO2
KW43 210835Z AUTO 24006KT 10SM CLR 18/15 A2994 RMK AO2
KW43 210815Z AUTO 23005KT 10SM CLR 18/15 A2994 RMK AO2
KW43 210755Z AUTO 22005KT 10SM CLR 18/14 A2994 RMK AO2
KW43 210735Z AUTO 00000KT 10SM CLR 20/13 A2994 RMK AO2 LTG DSNT E
KW43 210715Z AUTO 24003KT 10SM CLR 19/14 A2995 RMK AO2
KW43 210655Z AUTO 20008KT 10SM CLR 19/14 A2996 RMK AO2
KW43 210635Z AUTO 14010G15KT 10SM CLR 21/13 A2995 RMK AO2 LTG DSNT SE
KW43 210615Z AUTO 14018G27KT 10SM CLR 20/15 A2994 RMK AO2
KW43 210555Z AUTO 13016G24KT 10SM CLR 20/15 A2994 RMK AO2 P0001 LTG DSNT SE AND S
KW43 210535Z AUTO 13017G30KT 10SM CLR 20/15 A2994 RMK AO2 P0001 LTG DSNT S
KW43 210515Z AUTO 13020G29KT 10SM SCT060 SCT070 SCT085 20/16 A2994 RMK AO2 P0001 LTG DSNT SE
KW43 210455Z AUTO 13026KT 7SM RA SCT050 BKN090 OVC110 18/16 A2996 RMK AO2 P0013
KW43 210435Z AUTO 15009KT 10SM -RA SCT030 SCT050 BKN095 19/17 A3005 RMK AO2 P0011 LTG DSNT S
KW43 210415Z AUTO 19007KT 7SM -TSRA SCT019 BKN044 OVC110 18/17 A3007 RMK AO2 P0010 LTG DSNT ALQS
KW43 210355Z AUTO 19008KT 7SM +TSRA SCT043 OVC090 20/16 A3008 RMK AO2 P0002 LTG DSNT ALQS
KW43 210335Z AUTO 17011KT 10SM TS BKN090 20/16 A3005 RMK AO2 LTG DSNT SE AND S
KW43 210315Z AUTO 15008KT 10SM -VCTSRA SCT065 SCT075 BKN090 20/16 A3003 RMK AO2 LTG DSNT E THRU SW
KW43 210255Z AUTO 15010KT 10SM -TSRA BKN090 BKN110 20/16 A3003 RMK AO2 P0002 LTG DSNT ALQS
KW43 210235Z AUTO 15012KT 10SM -TSRA SCT065 OVC100 20/17 A3000 RMK AO2 P0002 LTG DSNT ALQS
KW43 210215Z AUTO 11006KT 7SM VCTSRA SCT065 BKN100 OVC120 20/16 A2999 RMK AO2 P0001 LTG DSNT ALQS
KW43 210155Z AUTO 14007KT 10SM -TSRA SCT029 SCT055 OVC110 20/16 A2999 RMK AO2 P0005 LTG DSNT ALQS
KW43 210135Z AUTO 00000KT 5SM +TSRA SCT027 SCT045 OVC100 21/15 A2998 RMK AO2 P0002 LTG DSNT ALQS
KW43 210115Z AUTO 31008G26KT 10SM TS BKN100 BKN120 27/09 A2997 RMK AO2 LTG DSNT ALQS
KW43 210055Z AUTO 34010KT 10SM SCT120 29/08 A2991 RMK AO2 LTG DSNT NW THRU NE
KW43 210035Z AUTO 19010G22KT 10SM CLR 33/09 A2989 RMK AO2 LTG DSNT N AND NW
KW43 210015Z AUTO 20011G21KT 10SM CLR 35/07 A2989 RMK AO2
KW43 202355Z AUTO 18015G22KT 10SM CLR 36/09 A2990 RMK AO2
KW43 202335Z AUTO 19011G20KT 10SM CLR 36/08 A2992 RMK AO2
KW43 202315Z AUTO 20012G21KT 10SM CLR 36/08 A2992 RMK AO2
KW43 202255Z AUTO 19014G20KT 10SM CLR 36/08 A2993 RMK AO2
KW43 202235Z AUTO 20012G17KT 10SM CLR 35/06 A2994 RMK AO2
KW43 202215Z AUTO 17013KT 10SM CLR 35/08 A2996 RMK AO2
KW43 202155Z AUTO 19012G17KT 10SM CLR 35/08 A2996 RMK AO2
KW43 202135Z AUTO 19013G21KT 10SM CLR 36/08 A2997 RMK AO2
KW43 202115Z AUTO 19011G17KT 10SM CLR 36/07 A2999 RMK AO2
KW43 202055Z AUTO 17015G22KT 10SM CLR 36/09 A2999 RMK AO2
KW43 202035Z AUTO 18012G19KT 10SM CLR 35/08 A3001 RMK AO2
KW43 202015Z AUTO 19014G17KT 10SM CLR 36/10 A3001 RMK AO2
KW43 201955Z AUTO 21016G22KT 10SM CLR 35/10 A3002 RMK AO2
KW43 201935Z AUTO 20012G19KT 10SM CLR 35/10 A3003 RMK AO2
KW43 201915Z AUTO 18017G22KT 10SM CLR 34/10 A3003 RMK AO2
KW43 201855Z AUTO 21014G21KT 10SM CLR 34/12 A3004 RMK AO2
KW43 201835Z AUTO 20018G26KT 10SM CLR 33/12 A3004 RMK AO2
KW43 201815Z AUTO 20020G27KT 10SM CLR 33/12 A3005 RMK AO2
KW43 201755Z AUTO 20019G25KT 10SM CLR 33/12 A3006 RMK AO2
KW43 201735Z AUTO 20012G20KT 10SM CLR 32/12 A3006 RMK AO2
KW43 201715Z AUTO 19017G23KT 10SM CLR 31/12 A3008 RMK AO2